Terminal Aerodrome Forecast
Issued by NWS

Home | Current Version | Previous Version | Text Only | Print | Product List | Glossary On
Versions: 1 2 3 4 5 6 7 8 9 10 11 12 13 14 15 16 17 18 19 20
000
FTUS46 KMFR 260500
TAFRBG
TAF
KRBG 260521Z 2606/2706 VRB03KT P6SM -SHRA SCT020 OVC040
     FM260800 00000KT P6SM -SHRA OVC020
     FM261800 VRB03KT P6SM -SHRA SCT020 BKN040
     FM262200 VRB03KT P6SM BKN040=

USA.gov is the U.S. government's official web portal to all federal, state and local government web resources and services.